ADDS METAR Data INFO
IDs: Format: Raw Decoded Include TAF

Data at: 0751 UTC 17 Oct 2017

KIJD 170652Z AUTO 35003KT 10SM CLR 03/02 A3022 RMK AO2 SLP235 T00330017
KIJD 170552Z AUTO 35004KT 10SM CLR 04/02 A3020 RMK AO2 SLP229 T00390022 10106 20039 51014
KIJD 170452Z AUTO 36003KT 10SM CLR 06/02 A3019 RMK AO2 SLP224 T00610022 402110061
KIJD 170352Z AUTO 36006KT 10SM CLR 08/03 A3018 RMK AO2 SLP219 T00780028
KIJD 170252Z AUTO 36005KT 10SM FEW034 SCT055 08/04 A3016 RMK AO2 SLP214 T00830039 53023
KIJD 170152Z AUTO 31005KT 10SM SCT037 09/03 A3014 RMK AO2 SLP207 T00940033
KIJD 170052Z AUTO 32008KT 10SM FEW047 10/03 A3011 RMK AO2 SLP197 T01000033
KIJD 162352Z AUTO 31004KT 10SM BKN045 11/04 A3009 RMK AO2 SLP190 T01060044 10133 20106 53027
KIJD 162252Z AUTO 31005KT 10SM CLR 11/04 A3006 RMK AO2 SLP180 T01110044
KIJD 162152Z AUTO 33005KT 10SM CLR 12/04 A3004 RMK AO2 SLP174 T01170039
KIJD 162052Z AUTO 32010KT 10SM CLR 13/04 A3001 RMK AO2 SLP162 T01280044 53015
KIJD 161952Z AUTO 34010KT 10SM CLR 13/05 A3000 RMK AO2 SLP159 T01280050
KIJD 161852Z AUTO 35010KT 10SM FEW033 13/05 A2997 RMK AO2 SLP146 T01280050
KIJD 161752Z AUTO 34011KT 10SM SCT034 13/05 A2997 RMK AO2 SLP147 T01330050 10139 20128 58004
KIJD 161652Z AUTO 36012KT 10SM FEW031 13/06 A2998 RMK AO2 SLP152 T01330056
KIJD 161649Z AUTO 35012KT 10SM SCT029 13/06 A2999 RMK AO2
KIJD 161621Z AUTO 32011G19KT 10SM BKN029 13/06 A2998 RMK AO2 T01330061
KIJD 161552Z AUTO 32010G16KT 10SM FEW031 13/06 A2998 RMK AO2 SLP151 T01330061
KIJD 161538Z AUTO 32006KT 10SM SCT028 13/06 A2997 RMK AO2 T01330061
KIJD 161512Z AUTO 31007KT 10SM BKN028 13/06 A2996 RMK AO2 T01280056
KIJD 161452Z AUTO 34006KT 10SM FEW033 SCT110 13/06 A2995 RMK AO2 SLP142 T01330056 51018
KIJD 161352Z AUTO 31008KT 10SM CLR 13/07 A2994 RMK AO2 SLP139 T01330067
KIJD 161252Z AUTO 33008G19KT 10SM CLR 13/07 A2993 RMK AO2 SLP134 T01330072
KIJD 161152Z AUTO 10SM FEW120 14/08 A2990 RMK AO2 SLP124 60002 70002 T01390078 10211 20139 53030
KIJD 161052Z AUTO 34009G15KT 10SM SCT120 14/09 A2984 RMK AO2 SLP105 T01440094
KIJD 160952Z AUTO 33011G15KT 290V360 10SM OVC110 15/11 A2983 RMK AO2 SLP100 T01500111
KIJD 160852Z AUTO 33008G15KT 10SM FEW070 OVC085 17/14 A2981 RMK AO2 RAE27 SLP093 P0000 60002 T01670144 53014
KIJD 160752Z AUTO 31008KT 10SM -RA SCT021 OVC031 17/16 A2980 RMK AO2 SLP088 P0001 T01720156
KIJD 160707Z AUTO 31010KT 10SM -RA BKN015 BKN022 OVC030 19/18 A2978 RMK AO2 P0000 T01940178
KIJD 160652Z AUTO 23004KT 7SM -RA BKN014 BKN024 OVC033 20/19 A2976 RMK AO2 RAB17 SLP076 P0001 T02000189
KIJD 160552Z AUTO VRB06KT 10SM OVC017 21/18 A2977 RMK AO2 SLP078 T02110183 10211 20206 55004
KIJD 160452Z AUTO 23011G16KT 10SM OVC018 21/18 A2977 RMK AO2 SLP078 T02110178 402280167
KIJD 160352Z AUTO 23010G18KT 10SM OVC019 21/17 A2977 RMK AO2 SLP080 T02060172
KIJD 160252Z AUTO 22009G19KT 10SM OVC019 21/17 A2978 RMK AO2 SLP083 T02060172 56006
KIJD 160152Z AUTO 23014G21KT 10SM OVC018 21/18 A2979 RMK AO2 SLP085 T02110178
KIJD 160052Z AUTO 22009G18KT 10SM OVC018 21/18 A2979 RMK AO2 SLP085 T02060178
KIJD 152352Z AUTO 23010G24KT 10SM OVC017 21/18 A2980 RMK AO2 SLP090 T02110178 10228 20211 56014
KIJD 152252Z AUTO 21012G19KT 10SM OVC018 21/18 A2981 RMK AO2 SLP093 T02110178
KIJD 152152Z AUTO 22006KT 10SM OVC020 22/18 A2982 RMK AO2 SLP097 T02170178
KIJD 152052Z AUTO 21009KT 10SM OVC022 22/17 A2984 RMK AO2 SLP104 T02220172 56028
KIJD 151952Z AUTO 20016G22KT 10SM BKN021 OVC027 23/18 A2986 RMK AO2 SLP112 T02280178